sensor_id;sensor_type;location;lat;lon;timestamp;pressure;altitude;pressure_sealevel;temperature;humidity
69796;BME280;57073;45.650;9.612;2023-03-14T00:04:04;98458.44;;;8.34;76.63
69796;BME280;57073;45.650;9.612;2023-03-14T00:09:04;98455.69;;;8.45;75.62
69796;BME280;57073;45.650;9.612;2023-03-14T00:14:04;98429.56;;;8.41;76.47
69796;BME280;57073;45.650;9.612;2023-03-14T00:19:05;98408.41;;;8.44;76.81
69796;BME280;57073;45.650;9.612;2023-03-14T00:24:06;98395.91;;;8.38;77.25
69796;BME280;57073;45.650;9.612;2023-03-14T00:29:06;98377.50;;;8.81;75.57
69796;BME280;57073;45.650;9.612;2023-03-14T00:34:07;98412.31;;;9.10;73.64
69796;BME280;57073;45.650;9.612;2023-03-14T00:39:07;98384.81;;;9.24;73.74
69796;BME280;57073;45.650;9.612;2023-03-14T00:44:08;98358.88;;;8.96;75.28
69796;BME280;57073;45.650;9.612;2023-03-14T00:49:08;98326.44;;;9.25;73.95
69796;BME280;57073;45.650;9.612;2023-03-14T00:54:08;98304.72;;;8.87;76.00
69796;BME280;57073;45.650;9.612;2023-03-14T00:59:09;98307.75;;;8.91;75.92
69796;BME280;57073;45.650;9.612;2023-03-14T01:04:10;98292.50;;;8.80;76.78
69796;BME280;57073;45.650;9.612;2023-03-14T01:09:10;98274.97;;;8.72;77.14
69796;BME280;57073;45.650;9.612;2023-03-14T01:14:10;98264.56;;;8.37;78.14
69796;BME280;57073;45.650;9.612;2023-03-14T01:19:11;98247.38;;;8.38;78.63
69796;BME280;57073;45.650;9.612;2023-03-14T01:24:11;98254.63;;;8.81;76.85
69796;BME280;57073;45.650;9.612;2023-03-14T01:29:12;98230.28;;;8.66;76.78
69796;BME280;57073;45.650;9.612;2023-03-14T01:34:12;98232.97;;;8.27;77.81
69796;BME280;57073;45.650;9.612;2023-03-14T01:39:13;98222.63;;;8.36;77.01
69796;BME280;57073;45.650;9.612;2023-03-14T01:44:13;98204.56;;;8.31;77.17
69796;BME280;57073;45.650;9.612;2023-03-14T01:49:34;98203.13;;;8.45;76.48
69796;BME280;57073;45.650;9.612;2023-03-14T01:54:38;98184.09;;;8.47;76.50
69796;BME280;57073;45.650;9.612;2023-03-14T01:59:40;98185.47;;;8.72;74.24
69796;BME280;57073;45.650;9.612;2023-03-14T02:04:42;98159.53;;;8.60;75.75
69796;BME280;57073;45.650;9.612;2023-03-14T02:09:43;98159.75;;;8.81;73.93
69796;BME280;57073;45.650;9.612;2023-03-14T02:14:44;98133.72;;;8.86;73.74
69796;BME280;57073;45.650;9.612;2023-03-14T02:25:30;98110.41;;;8.65;73.90
69796;BME280;57073;45.650;9.612;2023-03-14T02:30:33;98095.59;;;8.62;72.78
69796;BME280;57073;45.650;9.612;2023-03-14T02:35:46;98076.44;;;8.81;71.23
69796;BME280;57073;45.650;9.612;2023-03-14T02:40:48;98077.00;;;8.56;71.00
69796;BME280;57073;45.650;9.612;2023-03-14T02:45:50;98069.22;;;8.59;71.44
69796;BME280;57073;45.650;9.612;2023-03-14T02:50:53;98038.31;;;8.57;69.96
69796;BME280;57073;45.650;9.612;2023-03-14T02:55:54;98058.47;;;8.86;68.71
69796;BME280;57073;45.650;9.612;2023-03-14T03:00:55;98064.34;;;8.56;67.89
69796;BME280;57073;45.650;9.612;2023-03-14T03:05:55;98018.72;;;8.61;67.59
69796;BME280;57073;45.650;9.612;2023-03-14T03:10:57;98021.00;;;8.75;67.70
69796;BME280;57073;45.650;9.612;2023-03-14T03:15:58;98027.19;;;8.75;67.58
69796;BME280;57073;45.650;9.612;2023-03-14T03:21:03;98019.03;;;8.65;67.38
69796;BME280;57073;45.650;9.612;2023-03-14T03:26:04;98035.63;;;8.89;66.91
69796;BME280;57073;45.650;9.612;2023-03-14T03:31:09;98037.41;;;8.78;67.30
69796;BME280;57073;45.650;9.612;2023-03-14T03:36:10;98028.66;;;8.88;67.14
69796;BME280;57073;45.650;9.612;2023-03-14T03:41:10;98002.81;;;9.19;66.62
69796;BME280;57073;45.650;9.612;2023-03-14T03:46:11;98009.53;;;8.84;66.97
69796;BME280;57073;45.650;9.612;2023-03-14T03:51:13;97997.59;;;9.02;66.37
69796;BME280;57073;45.650;9.612;2023-03-14T03:56:14;97982.16;;;9.30;65.78
69796;BME280;57073;45.650;9.612;2023-03-14T04:01:15;97951.66;;;9.14;65.79
69796;BME280;57073;45.650;9.612;2023-03-14T04:06:15;97936.38;;;9.15;66.11
69796;BME280;57073;45.650;9.612;2023-03-14T04:11:16;97926.31;;;8.95;66.46
69796;BME280;57073;45.650;9.612;2023-03-14T04:16:19;97929.28;;;9.03;67.50
69796;BME280;57073;45.650;9.612;2023-03-14T04:21:20;97898.78;;;8.82;69.68
69796;BME280;57073;45.650;9.612;2023-03-14T04:26:20;97894.94;;;8.36;76.37
69796;BME280;57073;45.650;9.612;2023-03-14T04:31:21;97929.16;;;8.83;73.68
69796;BME280;57073;45.650;9.612;2023-03-14T04:36:21;97970.16;;;9.00;73.94
69796;BME280;57073;45.650;9.612;2023-03-14T04:41:22;97979.53;;;8.98;73.95
69796;BME280;57073;45.650;9.612;2023-03-14T04:46:22;98009.69;;;8.73;75.63
69796;BME280;57073;45.650;9.612;2023-03-14T04:51:23;98018.50;;;8.95;75.40
69796;BME280;57073;45.650;9.612;2023-03-14T04:56:27;98011.16;;;9.23;75.60
69796;BME280;57073;45.650;9.612;2023-03-14T05:01:27;97979.41;;;8.50;77.04
69796;BME280;57073;45.650;9.612;2023-03-14T05:06:28;97964.22;;;8.98;76.17
69796;BME280;57073;45.650;9.612;2023-03-14T05:11:28;97980.94;;;9.05;77.34
69796;BME280;57073;45.650;9.612;2023-03-14T05:16:29;97991.25;;;8.54;77.18
69796;BME280;57073;45.650;9.612;2023-03-14T05:21:29;98009.75;;;9.10;75.76
69796;BME280;57073;45.650;9.612;2023-03-14T05:26:30;97996.75;;;9.02;75.59
69796;BME280;57073;45.650;9.612;2023-03-14T05:31:30;97970.88;;;8.91;75.13
69796;BME280;57073;45.650;9.612;2023-03-14T05:36:31;97925.00;;;8.32;77.00
69796;BME280;57073;45.650;9.612;2023-03-14T05:41:31;97916.75;;;8.12;77.12
69796;BME280;57073;45.650;9.612;2023-03-14T05:46:31;97906.16;;;7.73;79.70
69796;BME280;57073;45.650;9.612;2023-03-14T05:51:32;97834.47;;;7.19;82.41
69796;BME280;57073;45.650;9.612;2023-03-14T05:56:32;97782.13;;;6.89;84.69
69796;BME280;57073;45.650;9.612;2023-03-14T06:01:33;97784.59;;;7.18;83.05
69796;BME280;57073;45.650;9.612;2023-03-14T06:06:33;97831.59;;;7.26;82.48
69796;BME280;57073;45.650;9.612;2023-03-14T06:11:33;97905.25;;;7.89;79.33
69796;BME280;57073;45.650;9.612;2023-03-14T06:16:34;97926.84;;;8.00;78.20
69796;BME280;57073;45.650;9.612;2023-03-14T06:21:35;97951.16;;;8.42;77.36
69796;BME280;57073;45.650;9.612;2023-03-14T06:26:35;97951.00;;;8.00;77.15
69796;BME280;57073;45.650;9.612;2023-03-14T06:31:35;97958.06;;;8.33;76.39
69796;BME280;57073;45.650;9.612;2023-03-14T06:36:36;97971.94;;;8.57;76.78
69796;BME280;57073;45.650;9.612;2023-03-14T06:41:36;97969.63;;;8.71;76.37
69796;BME280;57073;45.650;9.612;2023-03-14T06:46:36;97984.25;;;8.85;75.55
69796;BME280;57073;45.650;9.612;2023-03-14T06:51:37;97975.47;;;8.90;75.37
69796;BME280;57073;45.650;9.612;2023-03-14T06:56:37;97978.47;;;8.99;75.38
69796;BME280;57073;45.650;9.612;2023-03-14T07:01:38;97965.03;;;8.99;74.10
69796;BME280;57073;45.650;9.612;2023-03-14T07:06:38;97972.59;;;9.07;73.84
69796;BME280;57073;45.650;9.612;2023-03-14T07:11:40;97970.41;;;8.99;73.65
69796;BME280;57073;45.650;9.612;2023-03-14T07:16:40;97961.09;;;8.79;73.59
69796;BME280;57073;45.650;9.612;2023-03-14T07:21:40;97973.91;;;8.99;73.18
69796;BME280;57073;45.650;9.612;2023-03-14T07:26:41;97987.34;;;8.99;73.18
69796;BME280;57073;45.650;9.612;2023-03-14T07:31:41;97988.47;;;9.08;73.36
69796;BME280;57073;45.650;9.612;2023-03-14T07:36:41;97989.06;;;9.16;72.49
69796;BME280;57073;45.650;9.612;2023-03-14T07:41:42;97987.38;;;9.04;72.11
69796;BME280;57073;45.650;9.612;2023-03-14T07:46:42;97994.16;;;8.80;72.65
69796;BME280;57073;45.650;9.612;2023-03-14T07:51:43;97993.81;;;9.03;72.69
69796;BME280;57073;45.650;9.612;2023-03-14T07:56:44;98004.19;;;9.22;71.82
69796;BME280;57073;45.650;9.612;2023-03-14T08:01:44;97997.13;;;9.16;72.40
69796;BME280;57073;45.650;9.612;2023-03-14T08:06:44;98014.34;;;9.15;72.06
69796;BME280;57073;45.650;9.612;2023-03-14T08:11:45;98015.66;;;9.12;71.86
69796;BME280;57073;45.650;9.612;2023-03-14T08:16:45;98015.88;;;9.43;72.54
69796;BME280;57073;45.650;9.612;2023-03-14T08:21:46;98003.97;;;9.34;72.74
69796;BME280;57073;45.650;9.612;2023-03-14T08:26:46;98008.41;;;9.13;72.46
69796;BME280;57073;45.650;9.612;2023-03-14T08:31:46;98006.22;;;9.52;71.88
69796;BME280;57073;45.650;9.612;2023-03-14T08:36:48;97998.63;;;10.02;70.23
69796;BME280;57073;45.650;9.612;2023-03-14T08:41:49;98010.34;;;10.44;67.94
69796;BME280;57073;45.650;9.612;2023-03-14T08:46:51;98011.16;;;10.70;68.39
69796;BME280;57073;45.650;9.612;2023-03-14T08:51:51;97992.56;;;10.63;66.89
69796;BME280;57073;45.650;9.612;2023-03-14T08:56:52;97980.41;;;10.76;66.07
69796;BME280;57073;45.650;9.612;2023-03-14T09:01:52;97984.72;;;10.97;65.43
69796;BME280;57073;45.650;9.612;2023-03-14T09:06:54;97989.06;;;11.04;65.49
69796;BME280;57073;45.650;9.612;2023-03-14T09:11:54;97983.13;;;10.40;67.43
69796;BME280;57073;45.650;9.612;2023-03-14T09:16:55;97976.41;;;10.84;66.25
69796;BME280;57073;45.650;9.612;2023-03-14T09:21:55;97981.50;;;11.11;66.11
69796;BME280;57073;45.650;9.612;2023-03-14T09:26:56;97978.53;;;11.07;66.27
69796;BME280;57073;45.650;9.612;2023-03-14T09:31:58;97975.03;;;10.76;66.03
69796;BME280;57073;45.650;9.612;2023-03-14T09:36:59;97972.88;;;10.88;65.76
69796;BME280;57073;45.650;9.612;2023-03-14T09:42:03;97980.66;;;11.10;65.96
69796;BME280;57073;45.650;9.612;2023-03-14T09:47:09;97967.41;;;11.34;64.91
69796;BME280;57073;45.650;9.612;2023-03-14T09:52:17;97960.09;;;11.40;64.63
69796;BME280;57073;45.650;9.612;2023-03-14T09:57:21;97960.88;;;11.46;63.53
69796;BME280;57073;45.650;9.612;2023-03-14T10:02:27;97946.84;;;11.54;63.96
69796;BME280;57073;45.650;9.612;2023-03-14T10:07:31;97938.19;;;11.62;63.38
69796;BME280;57073;45.650;9.612;2023-03-14T10:12:33;97941.44;;;11.54;62.95
69796;BME280;57073;45.650;9.612;2023-03-14T10:17:47;97932.53;;;11.59;63.53
69796;BME280;57073;45.650;9.612;2023-03-14T10:22:50;97937.53;;;11.86;63.29
69796;BME280;57073;45.650;9.612;2023-03-14T10:27:51;97942.38;;;11.89;62.37
69796;BME280;57073;45.650;9.612;2023-03-14T10:32:51;97942.00;;;12.06;61.02
69796;BME280;57073;45.650;9.612;2023-03-14T10:38:03;97930.59;;;11.64;63.09
69796;BME280;57073;45.650;9.612;2023-03-14T10:43:06;97932.13;;;11.86;61.46
69796;BME280;57073;45.650;9.612;2023-03-14T10:48:21;97916.22;;;12.24;60.34
69796;BME280;57073;45.650;9.612;2023-03-14T10:53:23;97923.81;;;12.22;60.05
69796;BME280;57073;45.650;9.612;2023-03-14T10:58:32;97913.00;;;12.22;60.01
69796;BME280;57073;45.650;9.612;2023-03-14T11:03:36;97907.34;;;12.52;61.08
69796;BME280;57073;45.650;9.612;2023-03-14T11:08:57;97914.47;;;12.43;61.73
69796;BME280;57073;45.650;9.612;2023-03-14T11:19:46;97893.63;;;12.09;61.03
69796;BME280;57073;45.650;9.612;2023-03-14T11:25:03;97897.28;;;12.29;61.85
69796;BME280;57073;45.650;9.612;2023-03-14T11:30:17;97898.13;;;12.19;62.20
69796;BME280;57073;45.650;9.612;2023-03-14T11:35:34;97896.25;;;11.80;64.37
69796;BME280;57073;45.650;9.612;2023-03-14T11:40:37;97890.59;;;11.76;63.82
69796;BME280;57073;45.650;9.612;2023-03-14T11:45:41;97880.06;;;12.49;61.19
69796;BME280;57073;45.650;9.612;2023-03-14T11:50:43;97885.28;;;12.40;62.02
69796;BME280;57073;45.650;9.612;2023-03-14T11:55:44;97871.53;;;12.66;60.68
69796;BME280;57073;45.650;9.612;2023-03-14T12:00:47;97871.88;;;12.88;60.16
69796;BME280;57073;45.650;9.612;2023-03-14T12:10:56;97870.78;;;12.89;59.90
69796;BME280;57073;45.650;9.612;2023-03-14T12:16:00;97854.03;;;13.12;58.75
69796;BME280;57073;45.650;9.612;2023-03-14T12:21:06;97865.72;;;12.83;59.24
69796;BME280;57073;45.650;9.612;2023-03-14T12:26:15;97847.66;;;13.45;58.61
69796;BME280;57073;45.650;9.612;2023-03-14T12:42:02;97823.75;;;13.72;57.71
69796;BME280;57073;45.650;9.612;2023-03-14T12:52:21;97811.72;;;13.40;57.11
69796;BME280;57073;45.650;9.612;2023-03-14T12:57:42;97791.31;;;13.47;56.03
69796;BME280;57073;45.650;9.612;2023-03-14T13:02:46;97780.56;;;13.61;56.46
69796;BME280;57073;45.650;9.612;2023-03-14T13:17:50;97773.16;;;13.67;54.92
69796;BME280;57073;45.650;9.612;2023-03-14T13:22:51;97762.69;;;13.60;55.20
69796;BME280;57073;45.650;9.612;2023-03-14T13:27:54;97774.63;;;13.59;54.61
69796;BME280;57073;45.650;9.612;2023-03-14T13:32:55;97770.81;;;13.60;55.26
69796;BME280;57073;45.650;9.612;2023-03-14T13:38:01;97759.47;;;13.58;54.79
69796;BME280;57073;45.650;9.612;2023-03-14T13:43:13;97764.75;;;13.68;55.04
69796;BME280;57073;45.650;9.612;2023-03-14T13:48:15;97755.72;;;13.73;54.28
69796;BME280;57073;45.650;9.612;2023-03-14T13:53:16;97752.72;;;13.75;54.62
69796;BME280;57073;45.650;9.612;2023-03-14T13:58:28;97737.13;;;13.85;54.80
69796;BME280;57073;45.650;9.612;2023-03-14T14:03:36;97733.47;;;13.95;54.93
69796;BME280;57073;45.650;9.612;2023-03-14T14:08:40;97723.28;;;13.87;55.43
69796;BME280;57073;45.650;9.612;2023-03-14T14:13:41;97719.84;;;13.81;55.72
69796;BME280;57073;45.650;9.612;2023-03-14T14:18:41;97713.19;;;13.74;55.83
69796;BME280;57073;45.650;9.612;2023-03-14T14:23:42;97704.63;;;13.85;55.51
69796;BME280;57073;45.650;9.612;2023-03-14T14:28:43;97704.97;;;13.98;55.58
69796;BME280;57073;45.650;9.612;2023-03-14T14:34:03;97708.09;;;14.05;54.71
69796;BME280;57073;45.650;9.612;2023-03-14T14:39:10;97714.81;;;14.08;54.09
69796;BME280;57073;45.650;9.612;2023-03-14T14:44:13;97716.34;;;14.14;53.99
69796;BME280;57073;45.650;9.612;2023-03-14T14:49:18;97712.50;;;14.01;53.56
69796;BME280;57073;45.650;9.612;2023-03-14T14:54:31;97716.16;;;13.91;52.91
69796;BME280;57073;45.650;9.612;2023-03-14T14:59:42;97711.69;;;14.00;52.96
69796;BME280;57073;45.650;9.612;2023-03-14T15:04:43;97706.44;;;13.90;52.96
69796;BME280;57073;45.650;9.612;2023-03-14T15:09:44;97695.69;;;13.85;53.39
69796;BME280;57073;45.650;9.612;2023-03-14T15:14:44;97708.56;;;13.93;54.12
69796;BME280;57073;45.650;9.612;2023-03-14T15:19:44;97712.22;;;14.02;53.79
69796;BME280;57073;45.650;9.612;2023-03-14T15:24:45;97708.47;;;13.98;53.94
69796;BME280;57073;45.650;9.612;2023-03-14T15:29:45;97706.88;;;13.97;54.56
69796;BME280;57073;45.650;9.612;2023-03-14T15:34:45;97707.78;;;13.74;54.63
69796;BME280;57073;45.650;9.612;2023-03-14T15:39:46;97704.38;;;13.82;54.04
69796;BME280;57073;45.650;9.612;2023-03-14T15:44:46;97704.34;;;13.68;54.93
69796;BME280;57073;45.650;9.612;2023-03-14T15:49:47;97712.28;;;13.45;55.29
69796;BME280;57073;45.650;9.612;2023-03-14T15:54:47;97698.72;;;13.64;54.89
69796;BME280;57073;45.650;9.612;2023-03-14T15:59:48;97697.94;;;13.45;55.96
69796;BME280;57073;45.650;9.612;2023-03-14T16:04:48;97691.59;;;13.36;56.32
69796;BME280;57073;45.650;9.612;2023-03-14T16:09:48;97692.03;;;13.24;56.49
69796;BME280;57073;45.650;9.612;2023-03-14T16:14:49;97693.06;;;13.09;56.73
69796;BME280;57073;45.650;9.612;2023-03-14T16:19:49;97696.28;;;13.11;57.02
69796;BME280;57073;45.650;9.612;2023-03-14T16:24:49;97706.94;;;13.02;57.49
69796;BME280;57073;45.650;9.612;2023-03-14T16:29:50;97703.34;;;12.88;57.79
69796;BME280;57073;45.650;9.612;2023-03-14T16:34:51;97698.41;;;12.71;58.46
69796;BME280;57073;45.650;9.612;2023-03-14T16:39:52;97712.19;;;12.75;57.74
69796;BME280;57073;45.650;9.612;2023-03-14T16:44:53;97713.25;;;12.49;58.56
69796;BME280;57073;45.650;9.612;2023-03-14T16:49:53;97714.88;;;12.50;58.61
69796;BME280;57073;45.650;9.612;2023-03-14T16:54:54;97714.69;;;12.42;58.76
69796;BME280;57073;45.650;9.612;2023-03-14T16:59:54;97708.88;;;12.29;58.28
69796;BME280;57073;45.650;9.612;2023-03-14T17:04:55;97713.38;;;12.39;58.78
69796;BME280;57073;45.650;9.612;2023-03-14T17:09:55;97717.28;;;12.28;58.18
69796;BME280;57073;45.650;9.612;2023-03-14T17:14:56;97716.66;;;12.36;58.47
69796;BME280;57073;45.650;9.612;2023-03-14T17:19:58;97710.09;;;12.42;58.16
69796;BME280;57073;45.650;9.612;2023-03-14T17:24:58;97710.91;;;12.43;57.74
69796;BME280;57073;45.650;9.612;2023-03-14T17:30:01;97723.88;;;12.41;57.49
69796;BME280;57073;45.650;9.612;2023-03-14T17:35:02;97722.25;;;12.45;57.50
69796;BME280;57073;45.650;9.612;2023-03-14T17:40:03;97734.41;;;12.42;57.41
69796;BME280;57073;45.650;9.612;2023-03-14T17:45:05;97733.38;;;12.38;57.78
69796;BME280;57073;45.650;9.612;2023-03-14T17:50:06;97741.97;;;12.45;57.63
69796;BME280;57073;45.650;9.612;2023-03-14T17:55:07;97745.81;;;12.39;57.65
69796;BME280;57073;45.650;9.612;2023-03-14T18:00:09;97744.72;;;12.40;57.33
69796;BME280;57073;45.650;9.612;2023-03-14T18:05:11;97764.44;;;12.41;57.56
69796;BME280;57073;45.650;9.612;2023-03-14T18:10:11;97748.34;;;12.30;57.51
69796;BME280;57073;45.650;9.612;2023-03-14T18:15:13;97746.91;;;12.09;58.35
69796;BME280;57073;45.650;9.612;2023-03-14T18:20:14;97752.09;;;12.05;57.71
69796;BME280;57073;45.650;9.612;2023-03-14T18:25:14;97746.13;;;12.08;57.66
69796;BME280;57073;45.650;9.612;2023-03-14T18:30:15;97752.41;;;11.99;58.17
69796;BME280;57073;45.650;9.612;2023-03-14T18:35:16;97757.81;;;11.99;58.65
69796;BME280;57073;45.650;9.612;2023-03-14T18:40:16;97773.97;;;12.04;58.67
69796;BME280;57073;45.650;9.612;2023-03-14T18:45:18;97777.25;;;12.01;57.97
69796;BME280;57073;45.650;9.612;2023-03-14T18:50:19;97756.56;;;11.86;59.43
69796;BME280;57073;45.650;9.612;2023-03-14T18:55:19;97750.88;;;11.87;59.02
69796;BME280;57073;45.650;9.612;2023-03-14T19:00:20;97762.00;;;11.81;59.83
69796;BME280;57073;45.650;9.612;2023-03-14T19:05:20;97771.72;;;11.82;60.06
69796;BME280;57073;45.650;9.612;2023-03-14T19:10:21;97771.25;;;11.74;59.50
69796;BME280;57073;45.650;9.612;2023-03-14T19:15:21;97776.69;;;11.69;60.24
69796;BME280;57073;45.650;9.612;2023-03-14T19:20:21;97787.28;;;11.06;61.29
69796;BME280;57073;45.650;9.612;2023-03-14T19:25:23;97781.47;;;11.33;60.50
69796;BME280;57073;45.650;9.612;2023-03-14T19:30:24;97789.63;;;11.23;61.09
69796;BME280;57073;45.650;9.612;2023-03-14T19:35:25;97798.31;;;11.14;61.25
69796;BME280;57073;45.650;9.612;2023-03-14T19:40:26;97801.78;;;11.20;61.35
69796;BME280;57073;45.650;9.612;2023-03-14T19:45:26;97805.63;;;11.09;61.15
69796;BME280;57073;45.650;9.612;2023-03-14T19:50:32;97812.13;;;10.97;62.08
69796;BME280;57073;45.650;9.612;2023-03-14T19:55:33;97826.44;;;10.93;61.76
69796;BME280;57073;45.650;9.612;2023-03-14T20:00:34;97821.84;;;10.93;62.25
69796;BME280;57073;45.650;9.612;2023-03-14T20:05:37;97825.13;;;10.80;62.26
69796;BME280;57073;45.650;9.612;2023-03-14T20:10:38;97831.91;;;10.72;63.10
69796;BME280;57073;45.650;9.612;2023-03-14T20:15:40;97835.69;;;10.61;63.57
69796;BME280;57073;45.650;9.612;2023-03-14T20:20:40;97847.28;;;10.61;64.59
69796;BME280;57073;45.650;9.612;2023-03-14T20:25:41;97851.59;;;10.57;64.54
69796;BME280;57073;45.650;9.612;2023-03-14T20:30:42;97867.75;;;10.57;64.00
69796;BME280;57073;45.650;9.612;2023-03-14T20:35:43;97878.84;;;10.46;64.46
69796;BME280;57073;45.650;9.612;2023-03-14T20:40:47;97893.88;;;10.21;64.59
69796;BME280;57073;45.650;9.612;2023-03-14T20:45:51;97899.53;;;10.30;65.68
69796;BME280;57073;45.650;9.612;2023-03-14T20:50:52;97905.47;;;10.11;65.46
69796;BME280;57073;45.650;9.612;2023-03-14T20:55:54;97906.00;;;10.13;66.44
69796;BME280;57073;45.650;9.612;2023-03-14T21:00:56;97918.94;;;10.16;65.87
69796;BME280;57073;45.650;9.612;2023-03-14T21:05:56;97926.97;;;9.96;67.05
69796;BME280;57073;45.650;9.612;2023-03-14T21:10:57;97921.09;;;10.14;67.33
69796;BME280;57073;45.650;9.612;2023-03-14T21:15:59;97936.44;;;10.14;66.82
69796;BME280;57073;45.650;9.612;2023-03-14T21:21:00;97931.84;;;10.19;66.44
69796;BME280;57073;45.650;9.612;2023-03-14T21:26:00;97927.00;;;10.21;65.55
69796;BME280;57073;45.650;9.612;2023-03-14T21:31:05;97933.47;;;10.10;66.39
69796;BME280;57073;45.650;9.612;2023-03-14T21:36:06;97957.97;;;10.14;65.53
69796;BME280;57073;45.650;9.612;2023-03-14T21:41:06;97961.50;;;10.09;66.19
69796;BME280;57073;45.650;9.612;2023-03-14T21:46:07;97960.94;;;10.02;65.53
69796;BME280;57073;45.650;9.612;2023-03-14T21:51:08;97957.13;;;9.93;66.52
69796;BME280;57073;45.650;9.612;2023-03-14T21:56:08;97972.19;;;9.83;66.17
69796;BME280;57073;45.650;9.612;2023-03-14T22:01:09;97980.59;;;9.39;66.99
69796;BME280;57073;45.650;9.612;2023-03-14T22:06:09;97983.78;;;9.31;67.67
69796;BME280;57073;45.650;9.612;2023-03-14T22:11:10;97976.47;;;9.21;67.60
69796;BME280;57073;45.650;9.612;2023-03-14T22:16:10;97989.69;;;9.28;67.45
69796;BME280;57073;45.650;9.612;2023-03-14T22:21:10;97998.56;;;9.28;66.73
69796;BME280;57073;45.650;9.612;2023-03-14T22:26:11;98001.25;;;9.28;66.10
69796;BME280;57073;45.650;9.612;2023-03-14T22:31:11;97997.13;;;9.16;67.55
69796;BME280;57073;45.650;9.612;2023-03-14T22:36:12;98001.75;;;9.20;66.25
69796;BME280;57073;45.650;9.612;2023-03-14T22:41:12;98004.19;;;9.22;66.63
69796;BME280;57073;45.650;9.612;2023-03-14T22:46:12;98006.22;;;9.04;68.98
69796;BME280;57073;45.650;9.612;2023-03-14T22:51:13;98008.53;;;8.91;69.34
69796;BME280;57073;45.650;9.612;2023-03-14T22:56:14;98021.28;;;8.73;69.88
69796;BME280;57073;45.650;9.612;2023-03-14T23:01:14;98026.38;;;9.07;69.78
69796;BME280;57073;45.650;9.612;2023-03-14T23:06:15;98013.72;;;9.02;70.23
69796;BME280;57073;45.650;9.612;2023-03-14T23:11:16;98033.09;;;9.04;69.45
69796;BME280;57073;45.650;9.612;2023-03-14T23:16:17;98032.88;;;8.79;69.65
69796;BME280;57073;45.650;9.612;2023-03-14T23:21:20;98040.63;;;9.02;69.21
69796;BME280;57073;45.650;9.612;2023-03-14T23:26:24;98045.75;;;9.09;68.13
69796;BME280;57073;45.650;9.612;2023-03-14T23:31:24;98069.66;;;9.05;68.91
69796;BME280;57073;45.650;9.612;2023-03-14T23:36:25;98068.41;;;9.13;68.52
69796;BME280;57073;45.650;9.612;2023-03-14T23:41:25;98080.47;;;9.11;67.49
69796;BME280;57073;45.650;9.612;2023-03-14T23:46:26;98093.25;;;8.98;67.33
69796;BME280;57073;45.650;9.612;2023-03-14T23:51:27;98094.09;;;8.72;68.78
69796;BME280;57073;45.650;9.612;2023-03-14T23:56:27;98103.44;;;8.91;66.01
